Time;durP1;ratioP1;P1;durP2;ratioP2;P2;SDS_P1;SDS_P2;PMS_P1;PMS_P2;Temp;Humidity;BMP_temperature;BMP_pressure;BME280_temperature;BME280_humidity;BME280_pressure;Samples;Min_cycle;Max_cycle;Signal;HPM_P1;HPM_P2
2021/01/28 00:00:35;;;;;;;6.20;2.60;;;5.80;99.90;;;;;;5016897;28;20522;-76
2021/01/28 00:03:03;;;;;;;6.38;1.88;;;5.80;99.90;;;;;;5018322;28;20690;-77
2021/01/28 00:05:31;;;;;;;8.13;1.80;;;5.80;99.90;;;;;;5005655;28;20423;-76
2021/01/28 00:07:59;;;;;;;10.93;2.33;;;5.80;99.90;;;;;;5004995;28;20068;-76
2021/01/28 00:10:26;;;;;;;5.05;1.95;;;5.80;99.90;;;;;;5006654;28;20127;-77
2021/01/28 00:12:52;;;;;;;5.63;1.98;;;5.80;99.90;;;;;;5010761;28;20061;-77
2021/01/28 00:15:22;;;;;;;4.05;1.92;;;5.80;99.90;;;;;;5017956;28;20056;-77
2021/01/28 00:17:49;;;;;;;7.05;2.55;;;5.80;99.90;;;;;;5013174;28;20060;-76
2021/01/28 00:20:27;;;;;;;7.40;2.45;;;5.80;99.90;;;;;;5016433;28;20420;-77
2021/01/28 00:22:56;;;;;;;7.10;2.25;;;5.80;99.90;;;;;;4999203;28;20108;-77
2021/01/28 00:25:23;;;;;;;5.90;2.35;;;5.80;99.90;;;;;;5016929;28;20140;-77
2021/01/28 00:27:51;;;;;;;12.30;2.38;;;5.70;99.90;;;;;;4997859;28;20519;-77
2021/01/28 00:30:29;;;;;;;7.22;2.30;;;5.80;99.90;;;;;;5003958;28;20483;-77
2021/01/28 00:32:56;;;;;;;9.75;2.20;;;5.70;99.90;;;;;;4994827;28;20076;-77
2021/01/28 00:35:31;;;;;;;5.07;2.22;;;5.70;99.90;;;;;;4998513;28;20061;-77
2021/01/28 00:37:58;;;;;;;9.10;2.22;;;5.70;99.90;;;;;;4992463;28;20049;-77
2021/01/28 00:40:26;;;;;;;12.32;2.47;;;5.70;99.90;;;;;;5016662;28;20140;-76
2021/01/28 00:42:53;;;;;;;7.63;2.33;;;5.70;99.90;;;;;;5014076;28;20132;-76
2021/01/28 00:45:23;;;;;;;10.82;2.42;;;5.60;99.90;;;;;;5013556;28;20141;-77
2021/01/28 00:47:50;;;;;;;11.57;3.13;;;5.60;99.90;;;;;;5013975;28;20385;-77
2021/01/28 00:50:22;;;;;;;7.78;2.15;;;5.60;99.90;;;;;;5013019;28;20432;-77
2021/01/28 00:52:48;;;;;;;7.88;2.65;;;5.60;99.90;;;;;;5010755;28;20065;-77
2021/01/28 00:55:17;;;;;;;6.65;2.47;;;5.60;99.90;;;;;;5016179;28;20200;-77
2021/01/28 00:57:43;;;;;;;10.52;2.90;;;5.50;99.90;;;;;;5012876;28;20423;-76
2021/01/28 01:00:15;;;;;;;10.55;2.63;;;5.50;99.90;;;;;;5006435;28;20080;-77
2021/01/28 01:02:42;;;;;;;11.23;3.15;;;5.50;99.90;;;;;;5012806;28;20054;-77
2021/01/28 01:05:11;;;;;;;10.40;2.42;;;5.40;99.90;;;;;;5013819;28;20053;-77
2021/01/28 01:07:38;;;;;;;10.35;3.40;;;5.50;99.90;;;;;;5012621;28;20076;-77
2021/01/28 01:10:08;;;;;;;12.00;4.25;;;5.40;99.90;;;;;;5003629;28;20145;-77
2021/01/28 01:12:35;;;;;;;12.43;3.85;;;5.40;99.90;;;;;;5009694;28;20049;-77
2021/01/28 01:15:04;;;;;;;11.07;3.67;;;5.40;99.90;;;;;;5010595;28;20060;-77
2021/01/28 01:17:30;;;;;;;13.20;3.50;;;5.30;99.90;;;;;;5012565;28;20045;-77
2021/01/28 01:19:56;;;;;;;20.85;3.80;;;5.30;99.90;;;;;;5013791;28;20057;-77
2021/01/28 01:22:22;;;;;;;9.88;3.38;;;5.30;99.90;;;;;;5007351;28;20054;-77
2021/01/28 01:24:48;;;;;;;13.65;4.10;;;5.20;99.90;;;;;;5010780;28;20053;-77
2021/01/28 01:27:14;;;;;;;17.70;4.00;;;5.20;99.90;;;;;;5012181;28;20068;-77
2021/01/28 01:29:41;;;;;;;15.70;3.88;;;5.20;99.90;;;;;;5004147;28;20060;-77
2021/01/28 01:32:07;;;;;;;22.52;4.22;;;5.20;99.90;;;;;;4998855;28;20132;-77
2021/01/28 01:34:33;;;;;;;20.80;4.68;;;5.20;99.90;;;;;;5014786;28;20485;-77
2021/01/28 01:37:00;;;;;;;20.67;5.30;;;5.10;99.90;;;;;;5020166;28;20053;-77
2021/01/28 01:39:26;;;;;;;21.30;4.35;;;5.10;99.90;;;;;;5017007;28;20140;-77
2021/01/28 01:41:52;;;;;;;25.65;4.35;;;5.10;99.90;;;;;;5008468;28;20119;-77
2021/01/28 01:44:19;;;;;;;23.30;4.50;;;5.10;99.90;;;;;;5005269;28;20137;-76
2021/01/28 01:46:52;;;;;;;20.77;4.35;;;5.10;99.90;;;;;;5006989;28;20050;-77
2021/01/28 01:49:23;;;;;;;18.80;4.07;;;5.10;99.90;;;;;;5018621;28;20808;-76
2021/01/28 01:51:50;;;;;;;22.30;4.28;;;5.10;99.90;;;;;;5015170;28;20088;-77
2021/01/28 01:54:26;;;;;;;17.25;4.05;;;5.10;99.90;;;;;;5012647;28;20110;-77
2021/01/28 01:56:57;;;;;;;17.52;3.92;;;5.10;99.90;;;;;;5004294;28;20124;-77
2021/01/28 01:59:50;;;;;;;20.10;4.20;;;5.10;99.90;;;;;;5001308;28;20527;-76
2021/01/28 02:02:20;;;;;;;20.30;4.00;;;5.20;99.90;;;;;;5012697;28;20207;-77
2021/01/28 02:04:51;;;;;;;17.52;3.97;;;5.10;99.90;;;;;;5016666;28;20489;-77
2021/01/28 02:07:26;;;;;;;12.85;4.18;;;5.10;99.90;;;;;;4997004;28;20523;-76
2021/01/28 02:09:52;;;;;;;19.92;4.25;;;5.10;99.90;;;;;;5020432;28;20041;-77
2021/01/28 02:12:19;;;;;;;25.67;4.72;;;5.10;99.90;;;;;;5016781;28;20140;-77
2021/01/28 02:14:46;;;;;;;18.80;4.95;;;5.10;99.90;;;;;;5017036;28;20048;-77
2021/01/28 02:17:22;;;;;;;15.70;4.43;;;5.00;99.90;;;;;;4999413;28;20061;-76
2021/01/28 02:20:24;;;;;;;18.23;4.40;;;5.00;99.90;;;;;;5016293;28;20496;-77
2021/01/28 02:23:12;;;;;;;20.58;4.53;;;5.00;99.90;;;;;;5011251;28;20052;-77
2021/01/28 02:25:39;;;;;;;16.52;4.25;;;5.00;99.90;;;;;;4994350;28;20056;-76
2021/01/28 02:28:09;;;;;;;16.40;4.43;;;5.10;99.90;;;;;;5013677;28;20060;-76
2021/01/28 02:30:37;;;;;;;24.23;4.50;;;5.00;99.90;;;;;;4991448;28;20049;-76
2021/01/28 02:33:06;;;;;;;13.68;4.22;;;5.00;99.90;;;;;;5013736;28;20053;-76
2021/01/28 02:35:34;;;;;;;17.17;4.15;;;5.00;99.90;;;;;;5006453;28;20407;-76
2021/01/28 02:38:06;;;;;;;19.67;5.25;;;5.00;99.90;;;;;;5016661;28;20095;-76
2021/01/28 02:40:32;;;;;;;17.52;4.30;;;5.00;99.90;;;;;;5017336;28;20143;-77
2021/01/28 02:42:59;;;;;;;16.05;4.65;;;5.00;99.90;;;;;;5015265;28;20141;-77
2021/01/28 02:45:36;;;;;;;13.27;4.53;;;4.90;99.90;;;;;;5014344;28;20179;-77
2021/01/28 02:48:06;;;;;;;18.65;4.22;;;4.90;99.90;;;;;;5015818;28;20060;-77
2021/01/28 02:50:34;;;;;;;11.45;4.07;;;4.90;99.90;;;;;;5015338;28;20480;-77
2021/01/28 02:53:04;;;;;;;30.75;5.00;;;4.90;99.90;;;;;;4998640;28;20144;-77
2021/01/28 02:55:32;;;;;;;15.23;4.20;;;4.90;99.90;;;;;;5013068;28;20085;-77
2021/01/28 02:57:59;;;;;;;20.58;5.05;;;4.90;99.90;;;;;;5014609;28;20056;-77
2021/01/28 03:00:34;;;;;;;19.23;4.57;;;5.00;99.90;;;;;;5015348;28;20053;-77
2021/01/28 03:03:04;;;;;;;20.40;4.70;;;4.90;99.90;;;;;;5011965;28;20049;-76
2021/01/28 03:05:31;;;;;;;16.52;4.32;;;4.90;99.90;;;;;;5015645;28;20432;-77
2021/01/28 03:07:57;;;;;;;14.00;3.80;;;4.90;99.90;;;;;;5004004;28;20057;-77
2021/01/28 03:10:24;;;;;;;22.25;4.72;;;4.90;99.90;;;;;;5015568;28;20049;-77
2021/01/28 03:12:51;;;;;;;27.55;4.40;;;4.90;99.90;;;;;;5009997;28;20062;-77
2021/01/28 03:15:25;;;;;;;25.88;4.85;;;4.90;99.90;;;;;;5015653;28;20061;-76
2021/01/28 03:17:55;;;;;;;17.92;4.68;;;4.90;99.90;;;;;;5009080;28;20053;-77
2021/01/28 03:20:22;;;;;;;22.17;4.90;;;4.90;99.90;;;;;;5015628;28;20045;-77
2021/01/28 03:22:49;;;;;;;20.15;4.43;;;4.90;99.90;;;;;;5011559;28;20057;-77
2021/01/28 03:25:17;;;;;;;26.05;5.78;;;4.90;99.90;;;;;;5019071;28;20048;-77
2021/01/28 03:27:44;;;;;;;33.35;5.70;;;4.90;99.90;;;;;;5014450;28;20069;-76
2021/01/28 03:30:13;;;;;;;25.60;5.55;;;4.90;99.90;;;;;;5017452;28;20501;-77
2021/01/28 03:32:39;;;;;;;21.17;4.93;;;4.90;99.90;;;;;;4998304;28;20548;-77
2021/01/28 03:35:07;;;;;;;30.67;5.80;;;4.90;99.90;;;;;;5006071;28;20106;-77
2021/01/28 03:37:33;;;;;;;22.50;5.57;;;4.90;99.90;;;;;;5004787;28;20055;-77
2021/01/28 03:39:59;;;;;;;24.98;5.38;;;4.90;99.90;;;;;;4994123;28;20049;-77
2021/01/28 03:42:26;;;;;;;26.25;5.07;;;4.90;99.90;;;;;;5014642;28;20414;-77
2021/01/28 03:44:53;;;;;;;24.88;5.45;;;4.90;99.90;;;;;;5012497;28;20061;-76
2021/01/28 03:47:19;;;;;;;20.38;4.63;;;4.90;99.90;;;;;;5015181;28;20080;-76
2021/01/28 03:49:46;;;;;;;21.05;5.45;;;5.00;99.90;;;;;;5002499;28;20053;-76
2021/01/28 03:52:12;;;;;;;27.70;5.22;;;5.00;99.90;;;;;;5013845;28;20053;-77
2021/01/28 03:54:38;;;;;;;31.00;6.03;;;5.00;99.90;;;;;;5012395;28;20067;-77
2021/01/28 03:57:05;;;;;;;25.55;6.13;;;5.00;99.90;;;;;;5007196;28;20833;-77
2021/01/28 03:59:32;;;;;;;18.33;6.05;;;5.00;99.90;;;;;;5014387;28;20504;-77
2021/01/28 04:01:58;;;;;;;15.98;5.30;;;5.00;99.90;;;;;;5017490;28;20045;-77
2021/01/28 04:04:24;;;;;;;26.25;6.18;;;5.00;99.90;;;;;;5011944;28;20812;-76
2021/01/28 04:06:50;;;;;;;35.35;6.95;;;5.00;99.90;;;;;;5011127;28;20444;-77
2021/01/28 04:09:17;;;;;;;34.47;6.72;;;5.00;99.90;;;;;;5017698;28;20053;-77
2021/01/28 04:11:43;;;;;;;18.38;5.40;;;5.00;99.90;;;;;;5016415;28;20559;-77
2021/01/28 04:14:10;;;;;;;24.13;5.78;;;5.00;99.90;;;;;;5008851;28;20467;-77
2021/01/28 04:16:36;;;;;;;22.13;5.80;;;4.90;99.90;;;;;;5013791;28;20060;-77
2021/01/28 04:19:03;;;;;;;20.95;6.35;;;4.90;99.90;;;;;;5015886;28;20382;-77
2021/01/28 04:21:29;;;;;;;19.40;5.63;;;4.90;99.90;;;;;;5006981;28;20498;-77
2021/01/28 04:23:57;;;;;;;33.58;6.45;;;5.00;99.90;;;;;;5009460;28;20410;-77
2021/01/28 04:26:23;;;;;;;37.72;6.70;;;4.90;99.90;;;;;;5016701;28;20057;-77
2021/01/28 04:28:50;;;;;;;28.02;5.57;;;4.90;99.90;;;;;;5012675;28;20061;-77
2021/01/28 04:31:16;;;;;;;27.27;6.10;;;4.90;99.90;;;;;;4991486;28;20045;-77
2021/01/28 04:33:42;;;;;;;22.92;5.80;;;4.90;99.90;;;;;;5006627;28;20061;-77
2021/01/28 04:36:10;;;;;;;29.50;5.88;;;5.00;99.90;;;;;;5014542;28;20057;-77
2021/01/28 04:38:36;;;;;;;25.92;5.90;;;5.00;99.90;;;;;;5014344;28;20045;-76
2021/01/28 04:41:10;;;;;;;41.63;6.97;;;5.00;99.90;;;;;;5006891;28;20049;-77
2021/01/28 04:43:37;;;;;;;23.85;6.43;;;4.90;99.90;;;;;;5010064;28;20408;-77
2021/01/28 04:46:09;;;;;;;35.42;7.18;;;4.90;99.90;;;;;;5009856;28;20058;-77
2021/01/28 04:48:36;;;;;;;30.20;6.37;;;4.90;99.90;;;;;;5006544;28;20057;-77
2021/01/28 04:51:04;;;;;;;37.50;6.95;;;4.90;99.90;;;;;;5003743;28;20248;-76
2021/01/28 04:53:54;;;;;;;23.38;5.72;;;4.90;99.90;;;;;;5007798;28;20490;-77
2021/01/28 04:56:23;;;;;;;25.50;5.88;;;4.90;99.90;;;;;;5015278;28;20060;-77
2021/01/28 04:59:03;;;;;;;32.80;7.35;;;4.90;99.90;;;;;;5014137;28;20058;-77
2021/01/28 05:01:30;;;;;;;27.08;6.22;;;4.90;99.90;;;;;;5011666;28;20064;-77
2021/01/28 05:04:00;;;;;;;26.70;6.90;;;4.90;99.90;;;;;;4997988;28;20192;-77
2021/01/28 05:06:26;;;;;;;35.42;8.88;;;4.90;99.90;;;;;;4997584;28;20204;-77
2021/01/28 05:08:52;;;;;;;34.65;7.95;;;4.90;99.90;;;;;;5007807;28;20045;-77
2021/01/28 05:11:25;;;;;;;28.27;6.97;;;4.80;99.90;;;;;;5004038;28;20554;-77
2021/01/28 05:13:52;;;;;;;40.50;7.40;;;4.80;99.90;;;;;;5010161;28;20045;-77
2021/01/28 05:16:29;;;;;;;36.85;7.03;;;4.80;99.90;;;;;;5017984;28;20055;-77
2021/01/28 05:19:02;;;;;;;36.38;7.15;;;4.80;99.90;;;;;;5018496;28;20046;-77
2021/01/28 05:21:37;;;;;;;26.58;7.32;;;4.80;99.90;;;;;;5019087;28;20057;-77
2021/01/28 05:24:09;;;;;;;29.95;7.22;;;4.80;99.90;;;;;;5018993;28;20559;-77
2021/01/28 05:26:40;;;;;;;32.33;7.60;;;4.80;99.90;;;;;;4999083;28;20380;-77
2021/01/28 05:29:23;;;;;;;31.98;7.15;;;4.90;99.90;;;;;;5011887;28;20148;-77
2021/01/28 05:31:51;;;;;;;31.27;6.90;;;4.90;99.90;;;;;;4992981;28;20045;-76
2021/01/28 05:34:30;;;;;;;32.75;7.57;;;4.90;99.90;;;;;;5016167;28;20101;-77
2021/01/28 05:37:12;;;;;;;30.13;7.70;;;4.90;99.90;;;;;;5020032;28;20042;-77
2021/01/28 05:39:41;;;;;;;37.45;8.55;;;4.90;99.90;;;;;;5010713;28;20488;-77
2021/01/28 05:42:26;;;;;;;25.10;7.53;;;4.90;99.90;;;;;;5009329;28;20049;-76
2021/01/28 05:44:54;;;;;;;31.42;7.65;;;4.90;99.90;;;;;;5010575;28;20115;-77
2021/01/28 05:47:33;;;;;;;25.13;7.10;;;4.90;99.90;;;;;;5008343;28;20049;-77
2021/01/28 05:50:32;;;;;;;32.03;8.20;;;4.90;99.90;;;;;;5006745;28;20046;-76
2021/01/28 05:53:17;;;;;;;33.63;7.25;;;4.90;99.90;;;;;;4978283;28;20052;-76
2021/01/28 05:55:44;;;;;;;24.85;7.03;;;4.90;99.90;;;;;;4992954;28;20416;-76
2021/01/28 05:58:34;;;;;;;20.30;6.40;;;4.90;99.90;;;;;;5018327;28;20073;-76
2021/01/28 06:01:22;;;;;;;20.40;6.22;;;5.00;99.90;;;;;;5004423;28;20055;-76
2021/01/28 06:04:05;;;;;;;21.52;6.07;;;5.00;99.90;;;;;;5018219;28;20057;-76
2021/01/28 06:06:53;;;;;;;18.23;5.80;;;5.00;99.90;;;;;;5014264;28;20065;-76
2021/01/28 06:09:37;;;;;;;14.55;5.95;;;5.00;99.90;;;;;;5017733;28;20050;-76
2021/01/28 06:12:37;;;;;;;20.95;6.53;;;5.00;99.90;;;;;;4998776;28;20045;-77
2021/01/28 06:15:27;;;;;;;15.65;5.65;;;5.00;99.90;;;;;;5015217;28;20136;-76
2021/01/28 06:18:30;;;;;;;20.23;6.20;;;5.00;99.90;;;;;;4997890;28;20056;-77
2021/01/28 06:21:13;;;;;;;22.95;6.45;;;5.00;99.90;;;;;;4999678;28;20046;-77
2021/01/28 06:23:47;;;;;;;19.30;5.80;;;5.00;99.90;;;;;;5001570;28;20839;-76
2021/01/28 06:26:32;;;;;;;18.35;5.90;;;5.00;99.90;;;;;;5013580;28;20283;-77
2021/01/28 06:29:05;;;;;;;18.17;6.68;;;5.00;99.90;;;;;;5014436;28;20053;-77
2021/01/28 06:31:41;;;;;;;21.42;6.60;;;5.00;99.90;;;;;;5012546;28;20041;-76
2021/01/28 06:34:18;;;;;;;19.15;5.40;;;5.00;99.90;;;;;;5004210;28;20485;-77
2021/01/28 06:37:11;;;;;;;20.55;5.80;;;5.00;99.90;;;;;;4992942;28;20049;-77
2021/01/28 06:39:51;;;;;;;25.73;5.95;;;5.00;99.90;;;;;;5010932;28;20140;-76
2021/01/28 06:42:29;;;;;;;22.50;6.18;;;5.00;99.90;;;;;;5007891;28;20056;-76
2021/01/28 06:45:09;;;;;;;27.80;6.45;;;5.00;99.90;;;;;;5011382;28;20045;-77
2021/01/28 06:48:04;;;;;;;22.50;6.45;;;5.00;99.90;;;;;;4993218;28;20045;-76
2021/01/28 06:50:51;;;;;;;24.00;6.55;;;5.00;99.90;;;;;;4993780;28;20045;-77
2021/01/28 06:53:36;;;;;;;17.50;5.60;;;5.00;99.90;;;;;;4997304;28;20065;-77
2021/01/28 06:56:29;;;;;;;31.58;6.90;;;5.00;99.90;;;;;;5005586;28;20049;-77
2021/01/28 06:59:20;;;;;;;25.65;7.95;;;5.00;99.90;;;;;;5009443;28;20057;-78
2021/01/28 07:02:06;;;;;;;25.27;8.18;;;5.00;99.90;;;;;;4993413;28;20050;-77
2021/01/28 07:04:41;;;;;;;31.15;9.05;;;5.00;99.90;;;;;;5011457;28;20056;-76
2021/01/28 07:07:23;;;;;;;31.13;8.30;;;5.00;99.90;;;;;;5016619;28;20049;-76
2021/01/28 07:10:01;;;;;;;35.08;9.50;;;5.00;99.90;;;;;;5016383;28;20047;-76
2021/01/28 07:12:41;;;;;;;34.55;10.27;;;4.90;99.90;;;;;;4998508;28;20049;-76
2021/01/28 07:15:11;;;;;;;31.20;9.63;;;4.90;99.90;;;;;;4999862;28;20052;-77
2021/01/28 07:18:11;;;;;;;41.28;9.57;;;4.90;99.90;;;;;;5011614;28;20052;-77
2021/01/28 07:21:00;;;;;;;32.95;9.13;;;4.90;99.90;;;;;;5013697;28;20655;-77
2021/01/28 07:23:33;;;;;;;37.80;9.95;;;4.90;99.90;;;;;;4993093;28;20051;-77
2021/01/28 07:26:13;;;;;;;37.67;9.20;;;4.90;99.90;;;;;;4999138;28;20049;-77
2021/01/28 07:28:42;;;;;;;33.92;9.70;;;4.90;99.90;;;;;;5011963;28;20045;-76
2021/01/28 07:31:08;;;;;;;38.95;9.88;;;4.90;99.90;;;;;;4996969;28;20091;-76
2021/01/28 07:33:39;;;;;;;27.00;9.45;;;4.80;99.90;;;;;;5013581;28;20503;-78
2021/01/28 07:36:12;;;;;;;28.17;10.13;;;4.90;99.90;;;;;;5012622;28;20057;-78
2021/01/28 07:38:47;;;;;;;29.90;11.98;;;4.90;99.90;;;;;;5002621;28;20053;-76
2021/01/28 07:41:29;;;;;;;28.95;9.55;;;4.80;99.90;;;;;;4999345;28;20060;-76
2021/01/28 07:44:24;;;;;;;34.53;9.90;;;4.80;99.90;;;;;;4999426;28;20068;-74
2021/01/28 07:46:52;;;;;;;32.10;10.23;;;4.80;99.90;;;;;;5005429;28;20487;-74
2021/01/28 07:49:24;;;;;;;28.27;9.02;;;4.80;99.90;;;;;;4995951;28;20128;-77
2021/01/28 07:51:58;;;;;;;35.90;9.60;;;4.80;99.90;;;;;;5010181;28;20050;-77
2021/01/28 07:54:25;;;;;;;31.67;9.35;;;4.80;99.90;;;;;;4997449;28;20991;-77
2021/01/28 07:56:55;;;;;;;33.50;10.65;;;4.80;99.90;;;;;;5007345;28;20107;-77
2021/01/28 07:59:54;;;;;;;38.40;9.82;;;4.80;99.90;;;;;;5007242;28;20619;-76
2021/01/28 08:02:32;;;;;;;27.95;10.00;;;4.80;99.90;;;;;;5013213;28;20045;-77
2021/01/28 08:05:04;;;;;;;37.72;10.77;;;4.80;99.90;;;;;;5012147;28;20054;-77
2021/01/28 08:07:34;;;;;;;29.42;10.50;;;4.80;99.90;;;;;;4996467;28;20057;-77
2021/01/28 08:10:17;;;;;;;34.85;10.80;;;4.90;99.90;;;;;;4993883;28;20140;-77
2021/01/28 08:12:55;;;;;;;34.30;10.35;;;4.90;99.90;;;;;;4998767;28;20051;-77
2021/01/28 08:15:42;;;;;;;27.90;10.73;;;4.90;99.90;;;;;;5004949;28;20064;-77
2021/01/28 08:18:24;;;;;;;26.83;10.88;;;4.90;99.90;;;;;;5015769;28;20049;-77
2021/01/28 08:21:04;;;;;;;64.68;27.85;;;4.90;99.90;;;;;;4997790;28;20569;-77
2021/01/28 08:23:30;;;;;;;37.05;13.30;;;4.90;99.90;;;;;;5005700;28;20053;-77
2021/01/28 08:26:10;;;;;;;83.47;31.90;;;4.90;99.90;;;;;;4993029;28;20061;-77
2021/01/28 08:28:43;;;;;;;54.80;21.52;;;4.90;99.90;;;;;;5019388;28;20490;-77
2021/01/28 08:31:23;;;;;;;38.60;15.65;;;4.90;99.90;;;;;;5009211;28;20124;-77
2021/01/28 08:33:56;;;;;;;36.63;14.95;;;4.90;99.90;;;;;;5021346;28;20056;-77
2021/01/28 08:36:40;;;;;;;32.33;11.68;;;4.90;99.90;;;;;;5007171;28;20884;-76
2021/01/28 08:39:17;;;;;;;31.90;10.30;;;4.90;99.90;;;;;;5018303;28;20522;-77
2021/01/28 08:41:46;;;;;;;34.38;15.15;;;4.90;99.90;;;;;;5014016;28;20480;-77
2021/01/28 08:44:16;;;;;;;28.15;11.23;;;5.00;99.90;;;;;;5004552;28;20060;-77
2021/01/28 08:46:44;;;;;;;42.38;15.85;;;5.00;99.90;;;;;;5004679;28;20053;-77
2021/01/28 08:49:19;;;;;;;22.52;9.82;;;5.00;99.90;;;;;;5021601;28;20109;-77
2021/01/28 08:51:58;;;;;;;32.60;12.15;;;5.00;99.90;;;;;;5013070;28;20045;-77
2021/01/28 08:54:32;;;;;;;40.95;16.02;;;5.00;99.90;;;;;;4997520;28;20068;-77
2021/01/28 08:57:00;;;;;;;31.63;9.85;;;5.00;99.90;;;;;;5005022;28;20772;-77
2021/01/28 08:59:40;;;;;;;29.63;9.57;;;5.00;99.90;;;;;;5022610;28;20054;-77
2021/01/28 09:02:13;;;;;;;33.35;9.48;;;5.00;99.90;;;;;;5019275;28;20049;-77
2021/01/28 09:04:43;;;;;;;29.33;9.77;;;5.00;99.90;;;;;;5010992;28;20041;-77
2021/01/28 09:07:49;;;;;;;26.65;10.25;;;5.00;99.90;;;;;;5014292;28;20053;-76
2021/01/28 09:10:42;;;;;;;24.55;8.18;;;5.00;99.90;;;;;;5016094;28;20506;-77
2021/01/28 09:13:22;;;;;;;26.65;8.23;;;5.00;99.90;;;;;;5013557;28;20049;-77
2021/01/28 09:16:09;;;;;;;24.80;10.32;;;5.10;99.90;;;;;;4999938;28;20132;-76
2021/01/28 09:18:42;;;;;;;23.63;8.68;;;5.10;99.90;;;;;;5007313;28;22008;-77
2021/01/28 09:21:17;;;;;;;22.30;9.53;;;5.10;99.90;;;;;;5013961;28;20077;-77
2021/01/28 09:24:15;;;;;;;22.42;8.00;;;5.10;99.90;;;;;;5018512;28;20060;-77
2021/01/28 09:26:43;;;;;;;95.47;48.42;;;5.10;99.90;;;;;;5018081;28;20484;-77
2021/01/28 09:29:22;;;;;;;62.08;29.02;;;5.10;99.90;;;;;;5008946;28;20049;-77
2021/01/28 09:31:50;;;;;;;39.03;17.98;;;5.10;99.90;;;;;;5023182;28;20053;-78
2021/01/28 09:34:29;;;;;;;24.23;10.50;;;5.10;99.90;;;;;;5022650;28;20493;-79
2021/01/28 09:37:05;;;;;;;49.38;23.38;;;5.10;99.90;;;;;;5012298;28;20579;-78
2021/01/28 09:39:42;;;;;;;22.95;8.43;;;5.10;99.90;;;;;;5021721;28;20200;-76
2021/01/28 09:42:11;;;;;;;27.27;7.63;;;5.10;99.90;;;;;;5025372;28;20074;-79
2021/01/28 09:44:47;;;;;;;24.83;7.38;;;5.10;99.90;;;;;;5022300;28;20059;-78
2021/01/28 09:47:22;;;;;;;18.92;7.18;;;5.20;99.90;;;;;;5027798;28;20153;-79
2021/01/28 09:49:54;;;;;;;23.33;6.60;;;5.20;99.90;;;;;;5024040;28;20049;-78
2021/01/28 09:52:23;;;;;;;17.33;6.43;;;5.20;99.90;;;;;;5024339;28;20073;-77
2021/01/28 09:54:57;;;;;;;24.98;7.35;;;5.20;99.90;;;;;;5019896;28;20503;-78
2021/01/28 09:57:24;;;;;;;20.65;7.28;;;5.10;99.90;;;;;;5023422;28;20037;-78
2021/01/28 09:59:51;;;;;;;26.63;6.63;;;5.20;99.90;;;;;;5021388;28;20067;-78
2021/01/28 10:02:33;;;;;;;14.73;6.25;;;5.20;99.90;;;;;;5026556;28;20041;-77
2021/01/28 10:05:04;;;;;;;15.35;5.88;;;5.20;99.90;;;;;;5020631;28;20069;-77
2021/01/28 10:07:31;;;;;;;18.05;6.95;;;5.20;99.90;;;;;;5017210;28;20056;-77
2021/01/28 10:09:57;;;;;;;14.05;5.72;;;5.20;99.90;;;;;;5021392;28;20426;-78
2021/01/28 10:12:26;;;;;;;14.10;6.22;;;5.20;99.90;;;;;;5015975;28;20041;-76
2021/01/28 10:14:53;;;;;;;18.42;8.52;;;5.20;99.90;;;;;;5011935;28;20042;-76
2021/01/28 10:17:20;;;;;;;17.92;8.27;;;5.20;99.90;;;;;;5005195;28;20140;-76
2021/01/28 10:19:48;;;;;;;11.30;4.90;;;5.20;99.90;;;;;;5019616;28;20052;-78
2021/01/28 10:22:17;;;;;;;18.08;5.68;;;5.20;99.90;;;;;;5003476;28;20493;-79
2021/01/28 10:24:43;;;;;;;16.23;6.25;;;5.20;99.90;;;;;;5014550;28;20049;-78
2021/01/28 10:27:10;;;;;;;18.08;7.50;;;5.20;99.90;;;;;;5025505;28;20049;-79
2021/01/28 10:29:37;;;;;;;17.88;6.45;;;5.20;99.90;;;;;;5011624;28;20084;-78
2021/01/28 10:32:07;;;;;;;20.38;7.28;;;5.20;99.90;;;;;;5022806;28;20072;-78
2021/01/28 10:34:35;;;;;;;17.00;5.20;;;5.20;99.90;;;;;;5007664;28;20057;-79
2021/01/28 10:37:01;;;;;;;17.88;6.28;;;5.20;99.90;;;;;;5024707;28;20041;-78
2021/01/28 10:39:28;;;;;;;17.15;6.35;;;5.20;99.90;;;;;;5024839;28;20049;-78
2021/01/28 10:41:54;;;;;;;18.33;6.35;;;5.30;99.90;;;;;;5022887;28;20571;-77
2021/01/28 10:44:21;;;;;;;15.30;6.88;;;5.30;99.90;;;;;;5022835;28;20160;-79
2021/01/28 10:46:48;;;;;;;16.58;6.15;;;5.30;99.90;;;;;;5022727;28;20140;-78
2021/01/28 10:49:14;;;;;;;14.85;5.85;;;5.20;99.90;;;;;;5024119;28;20049;-79
2021/01/28 10:51:41;;;;;;;12.23;5.13;;;5.30;99.90;;;;;;5024345;28;20084;-79
2021/01/28 10:54:08;;;;;;;22.15;6.05;;;5.30;99.90;;;;;;5024410;28;20136;-79
2021/01/28 10:56:34;;;;;;;16.75;6.18;;;5.30;99.90;;;;;;5007074;28;20045;-78
2021/01/28 10:59:00;;;;;;;17.67;6.28;;;5.30;99.90;;;;;;5021119;28;20128;-78
2021/01/28 11:01:28;;;;;;;19.55;6.72;;;5.30;99.90;;;;;;5028038;28;20069;-78
2021/01/28 11:03:54;;;;;;;30.38;7.10;;;5.30;99.90;;;;;;4996627;28;20512;-78
2021/01/28 11:06:21;;;;;;;22.90;6.97;;;5.30;99.90;;;;;;5015426;28;20145;-77
2021/01/28 11:08:47;;;;;;;20.35;6.38;;;5.30;99.90;;;;;;5020537;28;20063;-77
2021/01/28 11:11:15;;;;;;;26.17;8.93;;;5.40;99.90;;;;;;5022871;28;20057;-78
2021/01/28 11:13:42;;;;;;;20.98;6.95;;;5.30;99.90;;;;;;5004927;28;20049;-78
2021/01/28 11:16:09;;;;;;;29.23;7.97;;;5.30;99.90;;;;;;5021479;28;21503;-78
2021/01/28 11:18:36;;;;;;;18.90;7.18;;;5.40;99.90;;;;;;5010704;28;20041;-78
2021/01/28 11:21:04;;;;;;;22.48;6.53;;;5.40;99.90;;;;;;4997368;28;20045;-78
2021/01/28 11:23:30;;;;;;;24.48;7.25;;;5.40;99.90;;;;;;5012340;28;20060;-77
2021/01/28 11:25:57;;;;;;;24.67;6.53;;;5.40;99.90;;;;;;5005191;28;20049;-78
2021/01/28 11:28:23;;;;;;;22.25;7.10;;;5.40;99.90;;;;;;5002563;28;20100;-77
2021/01/28 11:30:50;;;;;;;24.27;7.63;;;5.40;99.90;;;;;;5004314;28;20136;-78
2021/01/28 11:33:16;;;;;;;24.67;7.72;;;5.40;99.90;;;;;;5011310;28;20052;-78
2021/01/28 11:35:42;;;;;;;24.23;7.70;;;5.40;99.90;;;;;;5012425;28;20060;-77
2021/01/28 11:38:08;;;;;;;26.50;6.90;;;5.40;99.90;;;;;;5013672;28;20050;-78
2021/01/28 11:40:36;;;;;;;21.58;6.75;;;5.30;99.90;;;;;;5025924;28;20050;-77
2021/01/28 11:43:04;;;;;;;17.88;6.78;;;5.30;99.90;;;;;;5008855;28;20054;-77
2021/01/28 11:45:34;;;;;;;21.83;6.72;;;5.30;99.90;;;;;;5007579;28;20164;-77
2021/01/28 11:48:02;;;;;;;24.90;7.10;;;5.40;99.90;;;;;;5014162;28;20060;-77
2021/01/28 11:50:29;;;;;;;19.67;6.57;;;5.40;99.90;;;;;;5000694;28;20136;-77
2021/01/28 11:52:55;;;;;;;21.58;7.25;;;5.40;99.90;;;;;;5016001;28;20056;-77
2021/01/28 11:55:25;;;;;;;26.13;8.82;;;5.40;99.90;;;;;;5015754;28;20053;-75
2021/01/28 11:57:52;;;;;;;15.82;8.02;;;5.40;99.90;;;;;;5012984;28;20056;-76
2021/01/28 12:00:19;;;;;;;20.85;9.00;;;5.40;99.90;;;;;;5013720;28;20063;-78
2021/01/28 12:02:46;;;;;;;20.70;8.25;;;5.30;99.90;;;;;;5021647;28;20053;-78
2021/01/28 12:05:14;;;;;;;22.38;7.18;;;5.30;99.90;;;;;;5019960;28;20045;-78
2021/01/28 12:07:40;;;;;;;13.98;5.82;;;5.20;99.90;;;;;;5006660;28;20378;-79
2021/01/28 12:10:09;;;;;;;12.38;5.70;;;5.10;99.90;;;;;;5005026;28;20049;-78
2021/01/28 12:12:37;;;;;;;13.80;5.38;;;5.10;99.90;;;;;;5020603;28;20106;-77
2021/01/28 12:15:05;;;;;;;13.98;6.10;;;5.00;99.90;;;;;;5008758;28;20050;-77
2021/01/28 12:17:32;;;;;;;11.18;5.20;;;5.00;99.90;;;;;;5011606;28;20132;-77
2021/01/28 12:19:59;;;;;;;9.77;5.03;;;4.90;99.90;;;;;;5009791;28;20059;-77
2021/01/28 12:22:25;;;;;;;13.40;5.20;;;4.80;99.90;;;;;;5018168;28;20063;-77
2021/01/28 12:24:51;;;;;;;9.80;4.88;;;4.70;99.90;;;;;;5016213;28;20422;-78
2021/01/28 12:27:18;;;;;;;9.77;4.55;;;4.60;99.90;;;;;;5020461;28;21691;-77
2021/01/28 12:29:44;;;;;;;7.53;4.60;;;4.60;99.90;;;;;;5001479;28;20045;-77
2021/01/28 12:32:10;;;;;;;7.55;3.97;;;4.50;99.90;;;;;;5000961;28;21575;-78
2021/01/28 12:34:39;;;;;;;7.85;3.95;;;4.50;99.90;;;;;;5003571;28;20046;-77
2021/01/28 12:37:06;;;;;;;6.63;3.80;;;4.50;99.90;;;;;;5005795;28;20063;-77
2021/01/28 12:39:33;;;;;;;7.70;4.85;;;4.50;99.90;;;;;;4995407;28;20048;-77
2021/01/28 12:41:59;;;;;;;7.95;4.53;;;4.50;99.90;;;;;;5005932;28;20148;-78
2021/01/28 12:44:26;;;;;;;9.20;5.40;;;4.50;99.90;;;;;;5008938;28;20060;-78
2021/01/28 12:46:52;;;;;;;10.40;5.95;;;4.50;99.90;;;;;;5019586;28;20376;-77
2021/01/28 12:49:18;;;;;;;11.70;6.07;;;4.50;99.90;;;;;;5009847;28;20061;-78
2021/01/28 12:51:45;;;;;;;14.25;7.32;;;4.50;99.90;;;;;;5006616;28;20145;-77
2021/01/28 12:54:11;;;;;;;13.00;7.22;;;4.60;99.90;;;;;;5003751;28;20049;-77
2021/01/28 12:56:37;;;;;;;11.73;6.18;;;4.60;99.90;;;;;;5015768;28;20049;-77
2021/01/28 12:59:04;;;;;;;10.15;6.03;;;4.60;99.90;;;;;;5016400;28;20479;-77
2021/01/28 13:01:30;;;;;;;10.43;6.78;;;4.60;99.90;;;;;;5010052;28;20049;-77
2021/01/28 13:03:56;;;;;;;9.20;5.75;;;4.60;99.90;;;;;;5017612;28;20045;-77
2021/01/28 13:06:23;;;;;;;9.35;6.50;;;4.60;99.90;;;;;;5009121;28;20057;-77
2021/01/28 13:08:49;;;;;;;10.23;5.85;;;4.60;99.90;;;;;;4991531;28;20045;-77
2021/01/28 13:11:15;;;;;;;20.75;11.82;;;4.60;99.90;;;;;;5014006;28;20120;-78